sensor_id;sensor_type;location;lat;lon;timestamp;temperature;humidity
4306;DHT22;2166;49.926;8.608;2022-08-19T00:01:23;22.40;71.90
4306;DHT22;2166;49.926;8.608;2022-08-19T00:03:56;22.40;71.80
4306;DHT22;2166;49.926;8.608;2022-08-19T00:06:24;22.40;71.60
4306;DHT22;2166;49.926;8.608;2022-08-19T00:08:52;22.40;71.40
4306;DHT22;2166;49.926;8.608;2022-08-19T00:11:20;22.30;71.20
4306;DHT22;2166;49.926;8.608;2022-08-19T00:13:51;22.40;71.10
4306;DHT22;2166;49.926;8.608;2022-08-19T00:16:22;22.30;70.90
4306;DHT22;2166;49.926;8.608;2022-08-19T00:18:52;22.40;70.70
4306;DHT22;2166;49.926;8.608;2022-08-19T00:21:24;22.30;70.50
4306;DHT22;2166;49.926;8.608;2022-08-19T00:23:53;22.30;70.50
4306;DHT22;2166;49.926;8.608;2022-08-19T00:26:21;22.40;70.50
4306;DHT22;2166;49.926;8.608;2022-08-19T00:28:49;22.40;70.50
4306;DHT22;2166;49.926;8.608;2022-08-19T00:31:17;22.40;70.40
4306;DHT22;2166;49.926;8.608;2022-08-19T00:33:45;22.40;70.20
4306;DHT22;2166;49.926;8.608;2022-08-19T00:36:14;22.40;70.20
4306;DHT22;2166;49.926;8.608;2022-08-19T00:38:43;22.30;70.20
4306;DHT22;2166;49.926;8.608;2022-08-19T00:41:13;22.30;70.20
4306;DHT22;2166;49.926;8.608;2022-08-19T00:43:41;22.30;70.30
4306;DHT22;2166;49.926;8.608;2022-08-19T00:46:09;22.30;70.30
4306;DHT22;2166;49.926;8.608;2022-08-19T00:48:37;22.30;70.20
4306;DHT22;2166;49.926;8.608;2022-08-19T00:51:05;22.30;70.40
4306;DHT22;2166;49.926;8.608;2022-08-19T00:53:33;22.40;70.40
4306;DHT22;2166;49.926;8.608;2022-08-19T00:56:05;22.30;70.40
4306;DHT22;2166;49.926;8.608;2022-08-19T00:58:33;22.40;70.50
4306;DHT22;2166;49.926;8.608;2022-08-19T01:01:02;22.40;70.70
4306;DHT22;2166;49.926;8.608;2022-08-19T01:03:30;22.40;70.70
4306;DHT22;2166;49.926;8.608;2022-08-19T01:06:18;22.40;70.60
4306;DHT22;2166;49.926;8.608;2022-08-19T01:08:46;22.30;70.70
4306;DHT22;2166;49.926;8.608;2022-08-19T01:11:17;22.30;70.60
4306;DHT22;2166;49.926;8.608;2022-08-19T01:13:45;22.30;70.70
4306;DHT22;2166;49.926;8.608;2022-08-19T01:16:16;22.30;70.60
4306;DHT22;2166;49.926;8.608;2022-08-19T01:18:44;22.40;70.70
4306;DHT22;2166;49.926;8.608;2022-08-19T01:21:15;22.40;70.60
4306;DHT22;2166;49.926;8.608;2022-08-19T01:23:45;22.40;70.70
4306;DHT22;2166;49.926;8.608;2022-08-19T01:26:15;22.40;70.60
4306;DHT22;2166;49.926;8.608;2022-08-19T01:28:44;22.40;70.50
4306;DHT22;2166;49.926;8.608;2022-08-19T01:31:13;22.40;70.50
4306;DHT22;2166;49.926;8.608;2022-08-19T01:33:54;22.40;70.50
4306;DHT22;2166;49.926;8.608;2022-08-19T01:36:23;22.40;70.40
4306;DHT22;2166;49.926;8.608;2022-08-19T01:38:53;22.40;70.40
4306;DHT22;2166;49.926;8.608;2022-08-19T01:41:21;22.40;70.30
4306;DHT22;2166;49.926;8.608;2022-08-19T01:43:50;22.40;70.20
4306;DHT22;2166;49.926;8.608;2022-08-19T01:46:38;22.30;70.20
4306;DHT22;2166;49.926;8.608;2022-08-19T01:49:07;22.30;70.30
4306;DHT22;2166;49.926;8.608;2022-08-19T01:51:36;22.30;70.40
4306;DHT22;2166;49.926;8.608;2022-08-19T01:54:07;22.30;70.50
4306;DHT22;2166;49.926;8.608;2022-08-19T01:56:35;22.30;70.50
4306;DHT22;2166;49.926;8.608;2022-08-19T01:59:14;22.30;70.50
4306;DHT22;2166;49.926;8.608;2022-08-19T02:01:44;22.20;70.50
4306;DHT22;2166;49.926;8.608;2022-08-19T02:04:11;22.20;70.60
4306;DHT22;2166;49.926;8.608;2022-08-19T02:06:41;22.20;70.60
4306;DHT22;2166;49.926;8.608;2022-08-19T02:09:10;22.20;70.60
4306;DHT22;2166;49.926;8.608;2022-08-19T02:11:38;22.10;70.60
4306;DHT22;2166;49.926;8.608;2022-08-19T02:14:06;22.10;70.90
4306;DHT22;2166;49.926;8.608;2022-08-19T02:16:35;22.10;71.00
4306;DHT22;2166;49.926;8.608;2022-08-19T02:19:03;22.10;71.00
4306;DHT22;2166;49.926;8.608;2022-08-19T02:21:31;22.10;71.10
4306;DHT22;2166;49.926;8.608;2022-08-19T02:23:59;22.10;71.10
4306;DHT22;2166;49.926;8.608;2022-08-19T02:26:29;22.00;71.10
4306;DHT22;2166;49.926;8.608;2022-08-19T02:28:57;21.90;71.20
4306;DHT22;2166;49.926;8.608;2022-08-19T02:31:26;21.90;71.30
4306;DHT22;2166;49.926;8.608;2022-08-19T02:33:54;21.80;71.60
4306;DHT22;2166;49.926;8.608;2022-08-19T02:36:23;21.80;71.80
4306;DHT22;2166;49.926;8.608;2022-08-19T02:38:51;21.80;71.70
4306;DHT22;2166;49.926;8.608;2022-08-19T02:41:22;21.80;72.90
4306;DHT22;2166;49.926;8.608;2022-08-19T02:43:54;21.70;73.00
4306;DHT22;2166;49.926;8.608;2022-08-19T02:46:44;21.70;72.90
4306;DHT22;2166;49.926;8.608;2022-08-19T02:49:12;21.60;73.00
4306;DHT22;2166;49.926;8.608;2022-08-19T02:51:43;21.50;73.00
4306;DHT22;2166;49.926;8.608;2022-08-19T02:54:12;21.50;73.30
4306;DHT22;2166;49.926;8.608;2022-08-19T02:56:41;21.50;73.00
4306;DHT22;2166;49.926;8.608;2022-08-19T02:59:11;21.60;73.40
4306;DHT22;2166;49.926;8.608;2022-08-19T03:01:39;21.50;73.70
4306;DHT22;2166;49.926;8.608;2022-08-19T03:04:09;21.50;73.80
4306;DHT22;2166;49.926;8.608;2022-08-19T03:06:38;21.40;73.80
4306;DHT22;2166;49.926;8.608;2022-08-19T03:09:06;21.40;73.60
4306;DHT22;2166;49.926;8.608;2022-08-19T03:11:35;21.20;73.60
4306;DHT22;2166;49.926;8.608;2022-08-19T03:14:03;21.10;73.40
4306;DHT22;2166;49.926;8.608;2022-08-19T03:16:35;21.10;73.40
4306;DHT22;2166;49.926;8.608;2022-08-19T03:19:07;21.10;73.40
4306;DHT22;2166;49.926;8.608;2022-08-19T03:21:35;21.10;73.20
4306;DHT22;2166;49.926;8.608;2022-08-19T03:24:05;21.10;73.30
4306;DHT22;2166;49.926;8.608;2022-08-19T03:26:33;21.20;73.20
4306;DHT22;2166;49.926;8.608;2022-08-19T03:29:02;21.10;73.10
4306;DHT22;2166;49.926;8.608;2022-08-19T03:31:31;21.10;73.10
4306;DHT22;2166;49.926;8.608;2022-08-19T03:34:21;21.10;73.00
4306;DHT22;2166;49.926;8.608;2022-08-19T03:36:49;21.10;73.10
4306;DHT22;2166;49.926;8.608;2022-08-19T03:39:17;21.10;73.00
4306;DHT22;2166;49.926;8.608;2022-08-19T03:41:46;21.10;73.30
4306;DHT22;2166;49.926;8.608;2022-08-19T03:44:35;21.10;73.20
4306;DHT22;2166;49.926;8.608;2022-08-19T03:47:04;21.10;73.30
4306;DHT22;2166;49.926;8.608;2022-08-19T03:49:33;21.00;73.30
4306;DHT22;2166;49.926;8.608;2022-08-19T03:52:03;21.00;73.50
4306;DHT22;2166;49.926;8.608;2022-08-19T03:54:34;21.00;73.60
4306;DHT22;2166;49.926;8.608;2022-08-19T03:57:02;21.00;73.40
4306;DHT22;2166;49.926;8.608;2022-08-19T03:59:31;21.00;73.50
4306;DHT22;2166;49.926;8.608;2022-08-19T04:02:00;21.10;73.20
4306;DHT22;2166;49.926;8.608;2022-08-19T04:04:28;21.10;72.80
4306;DHT22;2166;49.926;8.608;2022-08-19T04:06:58;21.10;72.90
4306;DHT22;2166;49.926;8.608;2022-08-19T04:09:26;21.00;73.00
4306;DHT22;2166;49.926;8.608;2022-08-19T04:11:55;21.00;73.40
4306;DHT22;2166;49.926;8.608;2022-08-19T04:14:24;20.90;73.50
4306;DHT22;2166;49.926;8.608;2022-08-19T04:16:53;20.90;73.40
4306;DHT22;2166;49.926;8.608;2022-08-19T04:19:20;20.80;73.40
4306;DHT22;2166;49.926;8.608;2022-08-19T04:21:51;20.80;73.70
4306;DHT22;2166;49.926;8.608;2022-08-19T04:24:21;20.70;73.80
4306;DHT22;2166;49.926;8.608;2022-08-19T04:26:49;20.70;73.90
4306;DHT22;2166;49.926;8.608;2022-08-19T04:29:19;20.70;74.00
4306;DHT22;2166;49.926;8.608;2022-08-19T04:31:48;20.70;74.00
4306;DHT22;2166;49.926;8.608;2022-08-19T04:34:17;20.60;74.00
4306;DHT22;2166;49.926;8.608;2022-08-19T04:36:48;20.60;74.10
4306;DHT22;2166;49.926;8.608;2022-08-19T04:39:18;20.60;74.20
4306;DHT22;2166;49.926;8.608;2022-08-19T04:41:48;20.50;74.40
4306;DHT22;2166;49.926;8.608;2022-08-19T04:44:34;20.50;74.40
4306;DHT22;2166;49.926;8.608;2022-08-19T04:47:11;20.50;74.50
4306;DHT22;2166;49.926;8.608;2022-08-19T04:49:40;20.50;74.60
4306;DHT22;2166;49.926;8.608;2022-08-19T04:52:08;20.50;74.60
4306;DHT22;2166;49.926;8.608;2022-08-19T04:54:36;20.60;74.40
4306;DHT22;2166;49.926;8.608;2022-08-19T04:57:07;20.60;74.30
4306;DHT22;2166;49.926;8.608;2022-08-19T04:59:37;20.70;74.30
4306;DHT22;2166;49.926;8.608;2022-08-19T05:02:06;20.70;74.10
4306;DHT22;2166;49.926;8.608;2022-08-19T05:04:34;20.80;73.90
4306;DHT22;2166;49.926;8.608;2022-08-19T05:07:05;20.80;73.90
4306;DHT22;2166;49.926;8.608;2022-08-19T05:09:34;20.90;73.70
4306;DHT22;2166;49.926;8.608;2022-08-19T05:12:24;21.00;73.60
4306;DHT22;2166;49.926;8.608;2022-08-19T05:14:55;21.10;73.30
4306;DHT22;2166;49.926;8.608;2022-08-19T05:17:24;21.20;73.20
4306;DHT22;2166;49.926;8.608;2022-08-19T05:19:54;21.40;73.00
4306;DHT22;2166;49.926;8.608;2022-08-19T05:22:40;21.50;72.60
4306;DHT22;2166;49.926;8.608;2022-08-19T05:25:11;21.70;72.50
4306;DHT22;2166;49.926;8.608;2022-08-19T05:27:41;21.80;72.20
4306;DHT22;2166;49.926;8.608;2022-08-19T05:30:10;22.00;71.90
4306;DHT22;2166;49.926;8.608;2022-08-19T05:32:38;22.20;71.40
4306;DHT22;2166;49.926;8.608;2022-08-19T05:35:06;22.50;70.90
4306;DHT22;2166;49.926;8.608;2022-08-19T05:37:35;22.70;70.50
4306;DHT22;2166;49.926;8.608;2022-08-19T05:40:03;23.00;69.90
4306;DHT22;2166;49.926;8.608;2022-08-19T05:42:31;23.30;69.20
4306;DHT22;2166;49.926;8.608;2022-08-19T05:45:01;23.50;69.00
4306;DHT22;2166;49.926;8.608;2022-08-19T05:47:30;23.80;68.70
4306;DHT22;2166;49.926;8.608;2022-08-19T05:49:58;24.20;68.20
4306;DHT22;2166;49.926;8.608;2022-08-19T05:52:30;24.50;67.50
4306;DHT22;2166;49.926;8.608;2022-08-19T05:54:59;24.80;67.00
4306;DHT22;2166;49.926;8.608;2022-08-19T05:57:29;25.10;66.70
4306;DHT22;2166;49.926;8.608;2022-08-19T05:59:57;25.40;66.50
4306;DHT22;2166;49.926;8.608;2022-08-19T06:02:29;25.70;66.20
4306;DHT22;2166;49.926;8.608;2022-08-19T06:04:58;26.00;65.50
4306;DHT22;2166;49.926;8.608;2022-08-19T06:07:25;26.30;65.20
4306;DHT22;2166;49.926;8.608;2022-08-19T06:09:54;26.60;64.50
4306;DHT22;2166;49.926;8.608;2022-08-19T06:12:26;26.90;63.80
4306;DHT22;2166;49.926;8.608;2022-08-19T06:14:57;27.30;63.20
4306;DHT22;2166;49.926;8.608;2022-08-19T06:17:28;27.70;62.40
4306;DHT22;2166;49.926;8.608;2022-08-19T06:19:57;28.40;60.90
4306;DHT22;2166;49.926;8.608;2022-08-19T06:22:26;29.00;59.40
4306;DHT22;2166;49.926;8.608;2022-08-19T06:24:54;29.30;58.60
4306;DHT22;2166;49.926;8.608;2022-08-19T06:27:22;29.80;58.10
4306;DHT22;2166;49.926;8.608;2022-08-19T06:29:50;30.30;56.70
4306;DHT22;2166;49.926;8.608;2022-08-19T06:32:18;30.70;55.80
4306;DHT22;2166;49.926;8.608;2022-08-19T06:34:47;31.20;55.60
4306;DHT22;2166;49.926;8.608;2022-08-19T06:37:15;31.70;54.20
4306;DHT22;2166;49.926;8.608;2022-08-19T06:39:43;32.40;53.00
4306;DHT22;2166;49.926;8.608;2022-08-19T06:42:12;32.70;51.90
4306;DHT22;2166;49.926;8.608;2022-08-19T06:44:44;32.90;52.30
4306;DHT22;2166;49.926;8.608;2022-08-19T06:47:16;33.20;51.10
4306;DHT22;2166;49.926;8.608;2022-08-19T06:49:54;33.40;50.50
4306;DHT22;2166;49.926;8.608;2022-08-19T06:52:28;33.80;49.40
4306;DHT22;2166;49.926;8.608;2022-08-19T06:55:02;33.80;48.70
4306;DHT22;2166;49.926;8.608;2022-08-19T06:57:32;33.40;50.00
4306;DHT22;2166;49.926;8.608;2022-08-19T07:00:00;33.10;50.30
4306;DHT22;2166;49.926;8.608;2022-08-19T07:02:28;32.70;51.00
4306;DHT22;2166;49.926;8.608;2022-08-19T07:04:58;32.50;51.70
4306;DHT22;2166;49.926;8.608;2022-08-19T07:07:32;32.60;51.50
4306;DHT22;2166;49.926;8.608;2022-08-19T07:10:00;32.60;51.20
4306;DHT22;2166;49.926;8.608;2022-08-19T07:12:31;32.90;51.20
4306;DHT22;2166;49.926;8.608;2022-08-19T07:15:01;33.60;49.50
4306;DHT22;2166;49.926;8.608;2022-08-19T07:17:30;34.30;48.60
4306;DHT22;2166;49.926;8.608;2022-08-19T07:20:02;34.90;47.50
4306;DHT22;2166;49.926;8.608;2022-08-19T07:22:32;35.20;47.00
4306;DHT22;2166;49.926;8.608;2022-08-19T07:25:01;35.00;46.60
4306;DHT22;2166;49.926;8.608;2022-08-19T07:27:30;35.00;46.20
4306;DHT22;2166;49.926;8.608;2022-08-19T07:29:59;35.10;46.10
4306;DHT22;2166;49.926;8.608;2022-08-19T07:32:27;35.10;46.10
4306;DHT22;2166;49.926;8.608;2022-08-19T07:34:58;35.20;46.10
4306;DHT22;2166;49.926;8.608;2022-08-19T07:37:28;35.30;46.00
4306;DHT22;2166;49.926;8.608;2022-08-19T07:39:59;35.90;45.30
4306;DHT22;2166;49.926;8.608;2022-08-19T07:42:27;36.20;44.40
4306;DHT22;2166;49.926;8.608;2022-08-19T07:44:56;36.40;43.90
4306;DHT22;2166;49.926;8.608;2022-08-19T07:47:24;36.40;43.80
4306;DHT22;2166;49.926;8.608;2022-08-19T07:50:14;36.70;43.40
4306;DHT22;2166;49.926;8.608;2022-08-19T07:52:43;37.50;42.30
4306;DHT22;2166;49.926;8.608;2022-08-19T07:55:15;38.20;41.20
4306;DHT22;2166;49.926;8.608;2022-08-19T07:58:03;39.20;40.00
4306;DHT22;2166;49.926;8.608;2022-08-19T08:00:37;39.80;38.80
4306;DHT22;2166;49.926;8.608;2022-08-19T08:03:05;40.10;38.20
4306;DHT22;2166;49.926;8.608;2022-08-19T08:05:35;40.40;37.80
4306;DHT22;2166;49.926;8.608;2022-08-19T08:08:21;39.90;38.30
4306;DHT22;2166;49.926;8.608;2022-08-19T08:11:14;40.10;38.40
4306;DHT22;2166;49.926;8.608;2022-08-19T08:13:43;40.80;37.40
4306;DHT22;2166;49.926;8.608;2022-08-19T08:16:11;41.60;36.30
4306;DHT22;2166;49.926;8.608;2022-08-19T08:18:40;42.70;35.00
4306;DHT22;2166;49.926;8.608;2022-08-19T08:21:16;43.40;33.80
4306;DHT22;2166;49.926;8.608;2022-08-19T08:23:45;42.70;34.40
4306;DHT22;2166;49.926;8.608;2022-08-19T08:26:14;41.30;35.90
4306;DHT22;2166;49.926;8.608;2022-08-19T08:28:45;40.10;37.00
4306;DHT22;2166;49.926;8.608;2022-08-19T08:31:15;38.40;39.20
4306;DHT22;2166;49.926;8.608;2022-08-19T08:33:46;37.20;40.60
4306;DHT22;2166;49.926;8.608;2022-08-19T08:36:15;36.10;41.90
4306;DHT22;2166;49.926;8.608;2022-08-19T08:38:43;35.40;43.30
4306;DHT22;2166;49.926;8.608;2022-08-19T08:41:16;34.20;44.70
4306;DHT22;2166;49.926;8.608;2022-08-19T08:43:47;33.10;46.60
4306;DHT22;2166;49.926;8.608;2022-08-19T08:46:19;32.60;48.00
4306;DHT22;2166;49.926;8.608;2022-08-19T08:48:59;33.10;47.50
4306;DHT22;2166;49.926;8.608;2022-08-19T08:51:32;35.10;44.20
4306;DHT22;2166;49.926;8.608;2022-08-19T08:54:01;36.90;41.60
4306;DHT22;2166;49.926;8.608;2022-08-19T08:56:32;37.80;39.70
4306;DHT22;2166;49.926;8.608;2022-08-19T08:59:01;37.70;39.60
4306;DHT22;2166;49.926;8.608;2022-08-19T09:01:34;36.80;41.00
4306;DHT22;2166;49.926;8.608;2022-08-19T09:04:02;35.90;42.70
4306;DHT22;2166;49.926;8.608;2022-08-19T09:06:32;36.10;42.00
4306;DHT22;2166;49.926;8.608;2022-08-19T09:09:10;36.70;41.40
4306;DHT22;2166;49.926;8.608;2022-08-19T09:11:47;36.30;42.40
4306;DHT22;2166;49.926;8.608;2022-08-19T09:14:19;35.30;43.80
4306;DHT22;2166;49.926;8.608;2022-08-19T09:17:08;34.60;45.00
4306;DHT22;2166;49.926;8.608;2022-08-19T09:19:46;33.80;46.10
4306;DHT22;2166;49.926;8.608;2022-08-19T09:22:16;33.90;45.80
4306;DHT22;2166;49.926;8.608;2022-08-19T09:24:51;35.20;44.10
4306;DHT22;2166;49.926;8.608;2022-08-19T09:27:21;36.30;42.50
4306;DHT22;2166;49.926;8.608;2022-08-19T09:30:10;37.30;41.10
4306;DHT22;2166;49.926;8.608;2022-08-19T09:32:39;37.60;40.60
4306;DHT22;2166;49.926;8.608;2022-08-19T09:35:09;37.40;41.00
4306;DHT22;2166;49.926;8.608;2022-08-19T09:37:37;36.70;41.80
4306;DHT22;2166;49.926;8.608;2022-08-19T09:40:06;36.90;42.10
4306;DHT22;2166;49.926;8.608;2022-08-19T09:42:39;37.20;41.00
4306;DHT22;2166;49.926;8.608;2022-08-19T09:45:18;37.00;41.50
4306;DHT22;2166;49.926;8.608;2022-08-19T09:47:48;37.40;40.70
4306;DHT22;2166;49.926;8.608;2022-08-19T09:50:20;38.10;39.90
4306;DHT22;2166;49.926;8.608;2022-08-19T09:52:48;37.60;40.30
4306;DHT22;2166;49.926;8.608;2022-08-19T09:55:24;37.20;41.50
4306;DHT22;2166;49.926;8.608;2022-08-19T09:58:00;37.40;41.10
4306;DHT22;2166;49.926;8.608;2022-08-19T10:00:29;38.60;39.30
4306;DHT22;2166;49.926;8.608;2022-08-19T10:02:57;38.80;39.00
4306;DHT22;2166;49.926;8.608;2022-08-19T10:05:26;38.00;39.80
4306;DHT22;2166;49.926;8.608;2022-08-19T10:08:15;37.20;41.00
4306;DHT22;2166;49.926;8.608;2022-08-19T10:10:43;36.90;41.30
4306;DHT22;2166;49.926;8.608;2022-08-19T10:13:15;38.40;39.70
4306;DHT22;2166;49.926;8.608;2022-08-19T10:15:43;39.50;38.00
4306;DHT22;2166;49.926;8.608;2022-08-19T10:18:13;40.90;36.60
4306;DHT22;2166;49.926;8.608;2022-08-19T10:20:43;41.00;36.10
4306;DHT22;2166;49.926;8.608;2022-08-19T10:23:18;41.10;35.90
4306;DHT22;2166;49.926;8.608;2022-08-19T10:25:46;42.10;34.90
4306;DHT22;2166;49.926;8.608;2022-08-19T10:28:16;43.70;33.50
4306;DHT22;2166;49.926;8.608;2022-08-19T10:30:45;44.20;32.80
4306;DHT22;2166;49.926;8.608;2022-08-19T10:33:13;44.50;32.00
4306;DHT22;2166;49.926;8.608;2022-08-19T10:36:02;43.60;33.00
4306;DHT22;2166;49.926;8.608;2022-08-19T10:38:30;42.60;33.70
4306;DHT22;2166;49.926;8.608;2022-08-19T10:41:05;42.70;33.60
4306;DHT22;2166;49.926;8.608;2022-08-19T10:43:35;42.60;33.40
4306;DHT22;2166;49.926;8.608;2022-08-19T10:46:05;42.50;33.30
4306;DHT22;2166;49.926;8.608;2022-08-19T10:48:42;43.60;32.60
4306;DHT22;2166;49.926;8.608;2022-08-19T10:51:10;43.90;31.60
4306;DHT22;2166;49.926;8.608;2022-08-19T10:53:56;43.50;32.40
4306;DHT22;2166;49.926;8.608;2022-08-19T10:56:24;44.70;31.00
4306;DHT22;2166;49.926;8.608;2022-08-19T10:59:12;44.70;31.00
4306;DHT22;2166;49.926;8.608;2022-08-19T11:01:41;45.10;30.30
4306;DHT22;2166;49.926;8.608;2022-08-19T11:04:09;44.40;30.70
4306;DHT22;2166;49.926;8.608;2022-08-19T11:06:40;43.70;30.90
4306;DHT22;2166;49.926;8.608;2022-08-19T11:09:09;43.70;31.40
4306;DHT22;2166;49.926;8.608;2022-08-19T11:11:38;44.60;30.40
4306;DHT22;2166;49.926;8.608;2022-08-19T11:14:07;45.90;29.50
4306;DHT22;2166;49.926;8.608;2022-08-19T11:16:37;47.20;28.60
4306;DHT22;2166;49.926;8.608;2022-08-19T11:19:07;46.80;28.20
4306;DHT22;2166;49.926;8.608;2022-08-19T11:21:36;46.60;28.40
4306;DHT22;2166;49.926;8.608;2022-08-19T11:24:05;46.80;28.50
4306;DHT22;2166;49.926;8.608;2022-08-19T11:26:34;48.10;27.50
4306;DHT22;2166;49.926;8.608;2022-08-19T11:29:02;47.80;27.70
4306;DHT22;2166;49.926;8.608;2022-08-19T11:31:31;46.60;28.30
4306;DHT22;2166;49.926;8.608;2022-08-19T11:34:02;46.30;28.70
4306;DHT22;2166;49.926;8.608;2022-08-19T11:36:30;46.50;28.80
4306;DHT22;2166;49.926;8.608;2022-08-19T11:38:59;46.70;28.60
4306;DHT22;2166;49.926;8.608;2022-08-19T11:41:27;46.00;28.90
4306;DHT22;2166;49.926;8.608;2022-08-19T11:43:55;46.10;29.60
4306;DHT22;2166;49.926;8.608;2022-08-19T11:46:24;47.20;28.10
4306;DHT22;2166;49.926;8.608;2022-08-19T11:48:52;46.90;28.30
4306;DHT22;2166;49.926;8.608;2022-08-19T11:51:23;46.30;28.80
4306;DHT22;2166;49.926;8.608;2022-08-19T11:53:52;45.60;28.50
4306;DHT22;2166;49.926;8.608;2022-08-19T11:56:20;44.00;30.00
4306;DHT22;2166;49.926;8.608;2022-08-19T11:58:49;43.80;30.10
4306;DHT22;2166;49.926;8.608;2022-08-19T12:01:19;42.40;31.50
4306;DHT22;2166;49.926;8.608;2022-08-19T12:03:48;41.60;32.40
4306;DHT22;2166;49.926;8.608;2022-08-19T12:06:17;41.80;32.30
4306;DHT22;2166;49.926;8.608;2022-08-19T12:08:47;42.70;30.90
4306;DHT22;2166;49.926;8.608;2022-08-19T12:11:15;43.70;30.30
4306;DHT22;2166;49.926;8.608;2022-08-19T12:13:44;44.30;29.20
4306;DHT22;2166;49.926;8.608;2022-08-19T12:16:13;44.80;29.20
4306;DHT22;2166;49.926;8.608;2022-08-19T12:18:42;44.30;29.40
4306;DHT22;2166;49.926;8.608;2022-08-19T12:21:10;43.90;29.80
4306;DHT22;2166;49.926;8.608;2022-08-19T12:23:40;43.90;29.90
4306;DHT22;2166;49.926;8.608;2022-08-19T12:26:10;43.30;30.40
4306;DHT22;2166;49.926;8.608;2022-08-19T12:28:38;43.10;30.20
4306;DHT22;2166;49.926;8.608;2022-08-19T12:31:06;42.40;31.00
4306;DHT22;2166;49.926;8.608;2022-08-19T12:33:34;42.80;30.90
4306;DHT22;2166;49.926;8.608;2022-08-19T12:36:02;41.80;30.90
4306;DHT22;2166;49.926;8.608;2022-08-19T12:38:32;41.70;31.50
4306;DHT22;2166;49.926;8.608;2022-08-19T12:41:01;41.90;30.90
4306;DHT22;2166;49.926;8.608;2022-08-19T12:43:34;41.90;30.90
4306;DHT22;2166;49.926;8.608;2022-08-19T12:46:02;41.50;30.50
4306;DHT22;2166;49.926;8.608;2022-08-19T12:48:30;42.00;30.90
4306;DHT22;2166;49.926;8.608;2022-08-19T12:51:01;42.70;29.00
4306;DHT22;2166;49.926;8.608;2022-08-19T12:53:33;42.90;29.40
4306;DHT22;2166;49.926;8.608;2022-08-19T12:56:05;42.70;29.70
4306;DHT22;2166;49.926;8.608;2022-08-19T12:58:39;42.50;30.00
4306;DHT22;2166;49.926;8.608;2022-08-19T13:01:16;41.50;30.30
4306;DHT22;2166;49.926;8.608;2022-08-19T13:03:49;41.60;29.60
4306;DHT22;2166;49.926;8.608;2022-08-19T13:06:18;40.80;30.20
4306;DHT22;2166;49.926;8.608;2022-08-19T13:08:46;40.60;30.50
4306;DHT22;2166;49.926;8.608;2022-08-19T13:11:15;39.40;31.30
4306;DHT22;2166;49.926;8.608;2022-08-19T13:13:46;39.20;32.30
4306;DHT22;2166;49.926;8.608;2022-08-19T13:16:15;39.30;32.90
4306;DHT22;2166;49.926;8.608;2022-08-19T13:18:44;39.60;31.40
4306;DHT22;2166;49.926;8.608;2022-08-19T13:21:13;39.10;31.80
4306;DHT22;2166;49.926;8.608;2022-08-19T13:23:41;38.60;32.60
4306;DHT22;2166;49.926;8.608;2022-08-19T13:26:10;39.00;33.00
4306;DHT22;2166;49.926;8.608;2022-08-19T13:28:39;39.20;32.40
4306;DHT22;2166;49.926;8.608;2022-08-19T13:31:27;39.20;32.30
4306;DHT22;2166;49.926;8.608;2022-08-19T13:34:13;40.00;31.50
4306;DHT22;2166;49.926;8.608;2022-08-19T13:36:41;40.70;31.10
4306;DHT22;2166;49.926;8.608;2022-08-19T13:39:09;40.80;31.10
4306;DHT22;2166;49.926;8.608;2022-08-19T13:41:42;40.60;31.30
4306;DHT22;2166;49.926;8.608;2022-08-19T13:44:12;40.00;31.70
4306;DHT22;2166;49.926;8.608;2022-08-19T13:46:41;39.50;32.60
4306;DHT22;2166;49.926;8.608;2022-08-19T13:49:12;39.60;31.90
4306;DHT22;2166;49.926;8.608;2022-08-19T13:51:42;39.00;31.70
4306;DHT22;2166;49.926;8.608;2022-08-19T13:54:10;38.20;32.20
4306;DHT22;2166;49.926;8.608;2022-08-19T13:56:42;37.40;32.60
4306;DHT22;2166;49.926;8.608;2022-08-19T13:59:11;36.70;33.80
4306;DHT22;2166;49.926;8.608;2022-08-19T14:01:40;36.20;34.50
4306;DHT22;2166;49.926;8.608;2022-08-19T14:04:09;35.70;35.30
4306;DHT22;2166;49.926;8.608;2022-08-19T14:06:38;35.80;35.40
4306;DHT22;2166;49.926;8.608;2022-08-19T14:09:06;36.40;34.60
4306;DHT22;2166;49.926;8.608;2022-08-19T14:11:34;37.00;34.20
4306;DHT22;2166;49.926;8.608;2022-08-19T14:14:02;37.10;32.70
4306;DHT22;2166;49.926;8.608;2022-08-19T14:16:30;37.00;33.30
4306;DHT22;2166;49.926;8.608;2022-08-19T14:18:58;36.70;33.90
4306;DHT22;2166;49.926;8.608;2022-08-19T14:21:28;36.80;34.00
4306;DHT22;2166;49.926;8.608;2022-08-19T14:23:56;37.40;33.70
4306;DHT22;2166;49.926;8.608;2022-08-19T14:26:24;38.10;32.80
4306;DHT22;2166;49.926;8.608;2022-08-19T14:28:52;38.30;32.50
4306;DHT22;2166;49.926;8.608;2022-08-19T14:31:24;38.80;32.00
4306;DHT22;2166;49.926;8.608;2022-08-19T14:33:56;39.10;31.60
4306;DHT22;2166;49.926;8.608;2022-08-19T14:36:24;39.30;31.50
4306;DHT22;2166;49.926;8.608;2022-08-19T14:38:54;39.00;31.20
4306;DHT22;2166;49.926;8.608;2022-08-19T14:41:24;38.50;31.80
4306;DHT22;2166;49.926;8.608;2022-08-19T14:43:53;38.40;31.80
4306;DHT22;2166;49.926;8.608;2022-08-19T14:46:22;38.10;32.20
4306;DHT22;2166;49.926;8.608;2022-08-19T14:48:50;38.00;32.00
4306;DHT22;2166;49.926;8.608;2022-08-19T14:51:19;37.80;31.70
4306;DHT22;2166;49.926;8.608;2022-08-19T14:53:48;37.90;32.20
4306;DHT22;2166;49.926;8.608;2022-08-19T14:56:19;37.50;32.30
4306;DHT22;2166;49.926;8.608;2022-08-19T14:58:47;37.20;33.00
4306;DHT22;2166;49.926;8.608;2022-08-19T15:01:20;36.80;33.10
4306;DHT22;2166;49.926;8.608;2022-08-19T15:03:49;36.50;32.80
4306;DHT22;2166;49.926;8.608;2022-08-19T15:06:21;36.10;33.20
4306;DHT22;2166;49.926;8.608;2022-08-19T15:08:50;36.30;33.70
4306;DHT22;2166;49.926;8.608;2022-08-19T15:11:21;36.50;33.90
4306;DHT22;2166;49.926;8.608;2022-08-19T15:13:50;36.50;33.70
4306;DHT22;2166;49.926;8.608;2022-08-19T15:16:19;36.40;33.70
4306;DHT22;2166;49.926;8.608;2022-08-19T15:18:48;36.50;33.80
4306;DHT22;2166;49.926;8.608;2022-08-19T15:21:17;36.40;33.80
4306;DHT22;2166;49.926;8.608;2022-08-19T15:23:53;36.10;34.10
4306;DHT22;2166;49.926;8.608;2022-08-19T15:26:22;35.80;34.40
4306;DHT22;2166;49.926;8.608;2022-08-19T15:28:52;35.70;34.70
4306;DHT22;2166;49.926;8.608;2022-08-19T15:31:21;35.70;34.60
4306;DHT22;2166;49.926;8.608;2022-08-19T15:33:55;36.00;34.10
4306;DHT22;2166;49.926;8.608;2022-08-19T15:36:24;36.10;33.70
4306;DHT22;2166;49.926;8.608;2022-08-19T15:38:53;35.90;33.70
4306;DHT22;2166;49.926;8.608;2022-08-19T15:41:23;35.60;34.00
4306;DHT22;2166;49.926;8.608;2022-08-19T15:43:52;35.70;33.90
4306;DHT22;2166;49.926;8.608;2022-08-19T15:46:21;35.70;34.10
4306;DHT22;2166;49.926;8.608;2022-08-19T15:48:50;35.80;34.20
4306;DHT22;2166;49.926;8.608;2022-08-19T15:51:25;35.80;34.30
4306;DHT22;2166;49.926;8.608;2022-08-19T15:53:54;35.90;34.20
4306;DHT22;2166;49.926;8.608;2022-08-19T15:56:23;35.80;34.10
4306;DHT22;2166;49.926;8.608;2022-08-19T15:58:53;35.80;33.60
4306;DHT22;2166;49.926;8.608;2022-08-19T16:01:38;35.80;33.50
4306;DHT22;2166;49.926;8.608;2022-08-19T16:04:26;35.70;34.00
4306;DHT22;2166;49.926;8.608;2022-08-19T16:07:12;35.50;34.30
4306;DHT22;2166;49.926;8.608;2022-08-19T16:09:48;35.50;34.90
4306;DHT22;2166;49.926;8.608;2022-08-19T16:12:17;35.30;35.10
4306;DHT22;2166;49.926;8.608;2022-08-19T16:14:46;35.50;35.00
4306;DHT22;2166;49.926;8.608;2022-08-19T16:17:14;35.30;35.00
4306;DHT22;2166;49.926;8.608;2022-08-19T16:19:42;35.20;34.80
4306;DHT22;2166;49.926;8.608;2022-08-19T16:22:15;34.80;35.30
4306;DHT22;2166;49.926;8.608;2022-08-19T16:24:43;34.60;35.70